sensor_id;sensor_type;location;lat;lon;timestamp;pressure;altitude;pressure_sealevel;temperature;humidity
57568;BME280;43403;51.948;5.922;2023-01-25T00:01:01;103746.94;;;2.25;100.00
57568;BME280;43403;51.948;5.922;2023-01-25T00:03:28;103742.66;;;2.23;100.00
57568;BME280;43403;51.948;5.922;2023-01-25T00:05:58;103739.25;;;2.19;100.00
57568;BME280;43403;51.948;5.922;2023-01-25T00:08:26;103727.28;;;2.10;100.00
57568;BME280;43403;51.948;5.922;2023-01-25T00:10:52;103723.91;;;2.04;100.00
57568;BME280;43403;51.948;5.922;2023-01-25T00:13:18;103725.53;;;2.14;100.00
57568;BME280;43403;51.948;5.922;2023-01-25T00:15:45;103723.78;;;2.14;100.00
57568;BME280;43403;51.948;5.922;2023-01-25T00:18:11;103716.78;;;2.21;100.00
57568;BME280;43403;51.948;5.922;2023-01-25T00:20:37;103715.91;;;2.22;100.00
57568;BME280;43403;51.948;5.922;2023-01-25T00:23:04;103716.75;;;2.24;100.00
57568;BME280;43403;51.948;5.922;2023-01-25T00:25:30;103716.00;;;2.14;100.00
57568;BME280;43403;51.948;5.922;2023-01-25T00:27:56;103715.06;;;2.22;100.00
57568;BME280;43403;51.948;5.922;2023-01-25T00:30:23;103718.53;;;2.21;100.00
57568;BME280;43403;51.948;5.922;2023-01-25T00:32:53;103709.88;;;2.22;100.00
57568;BME280;43403;51.948;5.922;2023-01-25T00:35:22;103704.75;;;2.18;100.00
57568;BME280;43403;51.948;5.922;2023-01-25T00:37:51;103694.38;;;2.18;100.00
57568;BME280;43403;51.948;5.922;2023-01-25T00:40:17;103707.34;;;2.15;100.00
57568;BME280;43403;51.948;5.922;2023-01-25T00:42:44;103706.50;;;2.16;100.00
57568;BME280;43403;51.948;5.922;2023-01-25T00:45:10;103704.75;;;2.17;100.00
57568;BME280;43403;51.948;5.922;2023-01-25T00:47:38;103696.25;;;2.07;100.00
57568;BME280;43403;51.948;5.922;2023-01-25T00:50:07;103702.28;;;2.08;100.00
57568;BME280;43403;51.948;5.922;2023-01-25T00:52:34;103687.75;;;1.96;100.00
57568;BME280;43403;51.948;5.922;2023-01-25T00:55:00;103697.25;;;1.98;100.00
57568;BME280;43403;51.948;5.922;2023-01-25T00:57:26;103700.84;;;1.85;100.00
57568;BME280;43403;51.948;5.922;2023-01-25T00:59:53;103704.28;;;1.87;100.00
57568;BME280;43403;51.948;5.922;2023-01-25T01:02:19;103697.34;;;1.89;100.00
57568;BME280;43403;51.948;5.922;2023-01-25T01:04:45;103693.81;;;1.96;100.00
57568;BME280;43403;51.948;5.922;2023-01-25T01:07:12;103696.34;;;2.01;100.00
57568;BME280;43403;51.948;5.922;2023-01-25T01:09:39;103701.50;;;2.04;100.00
57568;BME280;43403;51.948;5.922;2023-01-25T01:12:05;103693.00;;;1.91;100.00
57568;BME280;43403;51.948;5.922;2023-01-25T01:14:32;103693.00;;;1.93;100.00
57568;BME280;43403;51.948;5.922;2023-01-25T01:16:58;103693.84;;;1.95;100.00
57568;BME280;43403;51.948;5.922;2023-01-25T01:19:25;103693.81;;;1.98;100.00
57568;BME280;43403;51.948;5.922;2023-01-25T01:21:51;103694.63;;;2.00;100.00
57568;BME280;43403;51.948;5.922;2023-01-25T01:24:17;103692.00;;;2.02;100.00
57568;BME280;43403;51.948;5.922;2023-01-25T01:26:45;103693.75;;;2.00;100.00
57568;BME280;43403;51.948;5.922;2023-01-25T01:29:11;103691.97;;;2.05;100.00
57568;BME280;43403;51.948;5.922;2023-01-25T01:31:38;103699.75;;;2.03;100.00
57568;BME280;43403;51.948;5.922;2023-01-25T01:34:04;103699.69;;;2.08;100.00
57568;BME280;43403;51.948;5.922;2023-01-25T01:36:31;103697.06;;;2.11;100.00
57568;BME280;43403;51.948;5.922;2023-01-25T01:38:58;103698.81;;;2.10;100.00
57568;BME280;43403;51.948;5.922;2023-01-25T01:41:25;103692.81;;;2.07;100.00
57568;BME280;43403;51.948;5.922;2023-01-25T01:43:51;103691.22;;;1.96;100.00
57568;BME280;43403;51.948;5.922;2023-01-25T01:46:22;103690.31;;;1.99;100.00
57568;BME280;43403;51.948;5.922;2023-01-25T01:53:56;103686.81;;;2.05;100.00
57568;BME280;43403;51.948;5.922;2023-01-25T01:56:34;103689.38;;;2.06;100.00
57568;BME280;43403;51.948;5.922;2023-01-25T01:59:03;103689.47;;;1.98;100.00
57568;BME280;43403;51.948;5.922;2023-01-25T02:01:30;103686.97;;;1.92;100.00
57568;BME280;43403;51.948;5.922;2023-01-25T02:03:56;103694.09;;;1.75;100.00
57568;BME280;43403;51.948;5.922;2023-01-25T02:08:49;103680.22;;;1.81;100.00
57568;BME280;43403;51.948;5.922;2023-01-25T02:11:17;103675.06;;;1.79;100.00
57568;BME280;43403;51.948;5.922;2023-01-25T02:13:44;103676.91;;;1.69;100.00
57568;BME280;43403;51.948;5.922;2023-01-25T02:16:13;103671.81;;;1.62;100.00
57568;BME280;43403;51.948;5.922;2023-01-25T02:18:41;103664.88;;;1.64;100.00
57568;BME280;43403;51.948;5.922;2023-01-25T02:21:08;103671.00;;;1.58;100.00
57568;BME280;43403;51.948;5.922;2023-01-25T02:26:05;103653.69;;;1.65;100.00
57568;BME280;43403;51.948;5.922;2023-01-25T02:28:37;103653.69;;;1.65;100.00
57568;BME280;43403;51.948;5.922;2023-01-25T02:31:05;103665.66;;;1.70;100.00
57568;BME280;43403;51.948;5.922;2023-01-25T02:33:31;103659.63;;;1.70;100.00
57568;BME280;43403;51.948;5.922;2023-01-25T02:38:30;103655.28;;;1.73;100.00
57568;BME280;43403;51.948;5.922;2023-01-25T02:41:02;103664.72;;;1.76;100.00
57568;BME280;43403;51.948;5.922;2023-01-25T02:43:30;103662.13;;;1.76;100.00
57568;BME280;43403;51.948;5.922;2023-01-25T02:45:59;103655.25;;;1.76;100.00
57568;BME280;43403;51.948;5.922;2023-01-25T02:48:29;103659.56;;;1.76;100.00
57568;BME280;43403;51.948;5.922;2023-01-25T02:50:55;103656.09;;;1.78;100.00
57568;BME280;43403;51.948;5.922;2023-01-25T02:53:21;103654.28;;;1.84;100.00
57568;BME280;43403;51.948;5.922;2023-01-25T02:55:48;103658.59;;;1.85;100.00
57568;BME280;43403;51.948;5.922;2023-01-25T02:58:14;103647.44;;;1.78;100.00
57568;BME280;43403;51.948;5.922;2023-01-25T03:00:40;103652.59;;;1.81;100.00
57568;BME280;43403;51.948;5.922;2023-01-25T03:03:06;103652.59;;;1.81;100.00
57568;BME280;43403;51.948;5.922;2023-01-25T03:05:33;103648.28;;;1.82;100.00
57568;BME280;43403;51.948;5.922;2023-01-25T03:07:59;103651.81;;;1.74;100.00
57568;BME280;43403;51.948;5.922;2023-01-25T03:10:26;103644.09;;;1.71;100.00
57568;BME280;43403;51.948;5.922;2023-01-25T03:12:53;103642.44;;;1.66;100.00
57568;BME280;43403;51.948;5.922;2023-01-25T03:15:19;103640.78;;;1.60;100.00
57568;BME280;43403;51.948;5.922;2023-01-25T03:17:45;103640.00;;;1.55;100.00
57568;BME280;43403;51.948;5.922;2023-01-25T03:20:12;103631.22;;;1.67;100.00
57568;BME280;43403;51.948;5.922;2023-01-25T03:22:38;103631.34;;;1.56;100.00
57568;BME280;43403;51.948;5.922;2023-01-25T03:25:04;103620.16;;;1.54;100.00
57568;BME280;43403;51.948;5.922;2023-01-25T03:27:32;103614.16;;;1.50;100.00
57568;BME280;43403;51.948;5.922;2023-01-25T03:29:58;103614.13;;;1.53;100.00
57568;BME280;43403;51.948;5.922;2023-01-25T03:32:24;103616.66;;;1.56;100.00
57568;BME280;43403;51.948;5.922;2023-01-25T03:34:51;103614.97;;;1.57;100.00
57568;BME280;43403;51.948;5.922;2023-01-25T03:37:17;103614.06;;;1.58;100.00
57568;BME280;43403;51.948;5.922;2023-01-25T03:39:43;103613.16;;;1.62;100.00
57568;BME280;43403;51.948;5.922;2023-01-25T03:42:10;103610.56;;;1.62;100.00
57568;BME280;43403;51.948;5.922;2023-01-25T03:44:36;103605.38;;;1.62;100.00
57568;BME280;43403;51.948;5.922;2023-01-25T03:47:02;103608.00;;;1.61;100.00
57568;BME280;43403;51.948;5.922;2023-01-25T03:49:29;103607.97;;;1.64;100.00
57568;BME280;43403;51.948;5.922;2023-01-25T03:51:55;103610.53;;;1.67;100.00
57568;BME280;43403;51.948;5.922;2023-01-25T03:54:23;103606.28;;;1.60;100.00
57568;BME280;43403;51.948;5.922;2023-01-25T03:56:49;103605.44;;;1.59;100.00
57568;BME280;43403;51.948;5.922;2023-01-25T03:59:15;103603.72;;;1.56;100.00
57568;BME280;43403;51.948;5.922;2023-01-25T04:01:42;103604.72;;;1.46;100.00
57568;BME280;43403;51.948;5.922;2023-01-25T04:04:08;103600.47;;;1.42;100.00
57568;BME280;43403;51.948;5.922;2023-01-25T04:06:35;103598.78;;;1.38;100.00
57568;BME280;43403;51.948;5.922;2023-01-25T04:09:01;103591.13;;;1.32;100.00
57568;BME280;43403;51.948;5.922;2023-01-25T04:11:27;103591.16;;;1.29;100.00
57568;BME280;43403;51.948;5.922;2023-01-25T04:13:53;103592.72;;;1.39;100.00
57568;BME280;43403;51.948;5.922;2023-01-25T04:16:20;103590.94;;;1.46;100.00
57568;BME280;43403;51.948;5.922;2023-01-25T04:18:46;103586.59;;;1.49;100.00
57568;BME280;43403;51.948;5.922;2023-01-25T04:21:13;103583.19;;;1.46;100.00
57568;BME280;43403;51.948;5.922;2023-01-25T04:23:39;103577.22;;;1.39;100.00
57568;BME280;43403;51.948;5.922;2023-01-25T04:26:06;103585.78;;;1.46;100.00
57568;BME280;43403;51.948;5.922;2023-01-25T04:28:33;103574.63;;;1.41;100.00
57568;BME280;43403;51.948;5.922;2023-01-25T04:31:00;103576.44;;;1.35;100.00
57568;BME280;43403;51.948;5.922;2023-01-25T04:33:26;103568.94;;;1.12;100.00
57568;BME280;43403;51.948;5.922;2023-01-25T04:35:53;103574.19;;;1.06;100.00
57568;BME280;43403;51.948;5.922;2023-01-25T04:38:19;103568.19;;;1.01;100.00
57568;BME280;43403;51.948;5.922;2023-01-25T04:40:46;103568.25;;;0.96;100.00
57568;BME280;43403;51.948;5.922;2023-01-25T04:43:12;103570.00;;;0.93;100.00
57568;BME280;43403;51.948;5.922;2023-01-25T04:45:39;103572.69;;;0.84;100.00
57568;BME280;43403;51.948;5.922;2023-01-25T04:48:06;103575.34;;;0.77;100.00
57568;BME280;43403;51.948;5.922;2023-01-25T04:50:40;103569.31;;;0.78;100.00
57568;BME280;43403;51.948;5.922;2023-01-25T04:53:07;103564.13;;;0.78;100.00
57568;BME280;43403;51.948;5.922;2023-01-25T04:55:34;103557.38;;;0.67;100.00
57568;BME280;43403;51.948;5.922;2023-01-25T04:58:00;103565.06;;;0.73;100.00
57568;BME280;43403;51.948;5.922;2023-01-25T05:00:27;103558.22;;;0.64;100.00
57568;BME280;43403;51.948;5.922;2023-01-25T05:02:54;103562.41;;;0.81;100.00
57568;BME280;43403;51.948;5.922;2023-01-25T05:05:20;103550.47;;;0.64;100.00
57568;BME280;43403;51.948;5.922;2023-01-25T05:07:46;103551.28;;;0.71;100.00
57568;BME280;43403;51.948;5.922;2023-01-25T05:10:13;103556.53;;;0.62;100.00
57568;BME280;43403;51.948;5.922;2023-01-25T05:12:39;103552.97;;;0.73;100.00
57568;BME280;43403;51.948;5.922;2023-01-25T05:15:06;103546.06;;;0.77;100.00
57568;BME280;43403;51.948;5.922;2023-01-25T05:17:33;103544.25;;;0.87;100.00
57568;BME280;43403;51.948;5.922;2023-01-25T05:19:59;103544.25;;;0.87;100.00
57568;BME280;43403;51.948;5.922;2023-01-25T05:22:25;103544.25;;;0.84;100.00
57568;BME280;43403;51.948;5.922;2023-01-25T05:24:51;103544.19;;;0.91;100.00
57568;BME280;43403;51.948;5.922;2023-01-25T05:27:18;103545.09;;;0.87;100.00
57568;BME280;43403;51.948;5.922;2023-01-25T05:29:45;103539.78;;;0.99;100.00
57568;BME280;43403;51.948;5.922;2023-01-25T05:32:13;103541.44;;;1.05;100.00
57568;BME280;43403;51.948;5.922;2023-01-25T05:34:40;103543.09;;;1.11;100.00
57568;BME280;43403;51.948;5.922;2023-01-25T05:37:06;103549.09;;;1.11;100.00
57568;BME280;43403;51.948;5.922;2023-01-25T05:39:33;103537.03;;;1.13;100.00
57568;BME280;43403;51.948;5.922;2023-01-25T05:41:59;103539.53;;;1.19;100.00
57568;BME280;43403;51.948;5.922;2023-01-25T05:44:26;103542.28;;;1.06;100.00
57568;BME280;43403;51.948;5.922;2023-01-25T05:46:52;103539.69;;;1.07;100.00
57568;BME280;43403;51.948;5.922;2023-01-25T05:49:18;103541.41;;;1.07;100.00
57568;BME280;43403;51.948;5.922;2023-01-25T05:51:45;103537.16;;;1.04;100.00
57568;BME280;43403;51.948;5.922;2023-01-25T05:54:15;103537.09;;;1.07;100.00
57568;BME280;43403;51.948;5.922;2023-01-25T05:56:43;103534.44;;;1.13;100.00
57568;BME280;43403;51.948;5.922;2023-01-25T05:59:10;103539.66;;;1.09;100.00
57568;BME280;43403;51.948;5.922;2023-01-25T06:01:36;103535.31;;;1.12;100.00
57568;BME280;43403;51.948;5.922;2023-01-25T06:04:03;103537.06;;;1.12;100.00
57568;BME280;43403;51.948;5.922;2023-01-25T06:06:29;103541.41;;;1.07;100.00
57568;BME280;43403;51.948;5.922;2023-01-25T06:08:55;103546.50;;;1.13;100.00
57568;BME280;43403;51.948;5.922;2023-01-25T06:11:22;103539.75;;;1.03;100.00
57568;BME280;43403;51.948;5.922;2023-01-25T06:13:49;103545.91;;;0.91;100.00
57568;BME280;43403;51.948;5.922;2023-01-25T06:16:16;103541.53;;;0.96;100.00
57568;BME280;43403;51.948;5.922;2023-01-25T06:18:43;103544.91;;;1.03;100.00
57568;BME280;43403;51.948;5.922;2023-01-25T06:21:10;103542.38;;;0.98;100.00
57568;BME280;43403;51.948;5.922;2023-01-25T06:23:36;103541.50;;;0.99;100.00
57568;BME280;43403;51.948;5.922;2023-01-25T06:26:04;103536.47;;;0.87;100.00
57568;BME280;43403;51.948;5.922;2023-01-25T06:28:31;103547.66;;;0.90;100.00
57568;BME280;43403;51.948;5.922;2023-01-25T06:33:30;103545.06;;;0.90;100.00
57568;BME280;43403;51.948;5.922;2023-01-25T06:36:01;103552.78;;;0.92;100.00
57568;BME280;43403;51.948;5.922;2023-01-25T06:38:27;103546.75;;;0.93;100.00
57568;BME280;43403;51.948;5.922;2023-01-25T06:40:57;103538.91;;;0.99;100.00
57568;BME280;43403;51.948;5.922;2023-01-25T06:43:23;103540.66;;;1.00;100.00
57568;BME280;43403;51.948;5.922;2023-01-25T06:45:49;103539.78;;;0.99;100.00
57568;BME280;43403;51.948;5.922;2023-01-25T06:48:15;103536.41;;;0.93;100.00
57568;BME280;43403;51.948;5.922;2023-01-25T06:50:42;103536.34;;;0.96;100.00
57568;BME280;43403;51.948;5.922;2023-01-25T06:53:08;103534.66;;;0.96;100.00
57568;BME280;43403;51.948;5.922;2023-01-25T06:55:35;103535.47;;;1.00;100.00
57568;BME280;43403;51.948;5.922;2023-01-25T06:58:01;103530.31;;;0.98;100.00
57568;BME280;43403;51.948;5.922;2023-01-25T07:00:27;103532.06;;;0.95;100.00
57568;BME280;43403;51.948;5.922;2023-01-25T07:02:54;103528.56;;;1.01;100.00
57568;BME280;43403;51.948;5.922;2023-01-25T07:05:20;103524.25;;;1.03;100.00
57568;BME280;43403;51.948;5.922;2023-01-25T07:07:47;103530.19;;;1.08;100.00
57568;BME280;43403;51.948;5.922;2023-01-25T07:10:13;103531.16;;;1.02;100.00
57568;BME280;43403;51.948;5.922;2023-01-25T07:12:40;103533.81;;;0.94;100.00
57568;BME280;43403;51.948;5.922;2023-01-25T07:15:06;103539.09;;;0.84;100.00
57568;BME280;43403;51.948;5.922;2023-01-25T07:17:33;103535.72;;;0.78;100.00
57568;BME280;43403;51.948;5.922;2023-01-25T07:19:59;103533.91;;;0.85;100.00
57568;BME280;43403;51.948;5.922;2023-01-25T07:22:26;103531.22;;;0.94;100.00
57568;BME280;43403;51.948;5.922;2023-01-25T07:24:52;103523.34;;;1.04;100.00
57568;BME280;43403;51.948;5.922;2023-01-25T07:27:19;103512.97;;;1.08;100.00
57568;BME280;43403;51.948;5.922;2023-01-25T07:29:45;103519.00;;;1.07;100.00
57568;BME280;43403;51.948;5.922;2023-01-25T07:32:11;103513.00;;;1.04;100.00
57568;BME280;43403;51.948;5.922;2023-01-25T07:34:39;103505.25;;;1.04;100.00
57568;BME280;43403;51.948;5.922;2023-01-25T07:37:05;103512.16;;;1.02;100.00
57568;BME280;43403;51.948;5.922;2023-01-25T07:39:32;103512.25;;;0.94;100.00
57568;BME280;43403;51.948;5.922;2023-01-25T07:41:58;103509.72;;;0.92;100.00
57568;BME280;43403;51.948;5.922;2023-01-25T07:44:24;103516.63;;;0.90;100.00
57568;BME280;43403;51.948;5.922;2023-01-25T07:46:51;103517.50;;;0.88;100.00
57568;BME280;43403;51.948;5.922;2023-01-25T07:49:18;103516.72;;;0.83;100.00
57568;BME280;43403;51.948;5.922;2023-01-25T07:51:44;103511.59;;;0.76;100.00
57568;BME280;43403;51.948;5.922;2023-01-25T07:54:11;103508.13;;;0.81;100.00
57568;BME280;43403;51.948;5.922;2023-01-25T07:56:37;103511.72;;;0.67;100.00
57568;BME280;43403;51.948;5.922;2023-01-25T07:59:05;103515.22;;;0.60;100.00
57568;BME280;43403;51.948;5.922;2023-01-25T08:01:34;103503.13;;;0.67;100.00
57568;BME280;43403;51.948;5.922;2023-01-25T08:04:02;103504.72;;;0.75;100.00
57568;BME280;43403;51.948;5.922;2023-01-25T08:06:30;103499.47;;;0.83;100.00
57568;BME280;43403;51.948;5.922;2023-01-25T08:09:09;103502.91;;;0.84;100.00
57568;BME280;43403;51.948;5.922;2023-01-25T08:11:35;103496.91;;;0.82;100.00
57568;BME280;43403;51.948;5.922;2023-01-25T08:14:02;103495.97;;;0.87;100.00
57568;BME280;43403;51.948;5.922;2023-01-25T08:16:29;103491.66;;;0.89;100.00
57568;BME280;43403;51.948;5.922;2023-01-25T08:18:56;103497.66;;;0.91;100.00
57568;BME280;43403;51.948;5.922;2023-01-25T08:21:23;103489.03;;;0.92;100.00
57568;BME280;43403;51.948;5.922;2023-01-25T08:23:50;103493.38;;;0.89;100.00
57568;BME280;43403;51.948;5.922;2023-01-25T08:26:17;103489.88;;;0.93;100.00
57568;BME280;43403;51.948;5.922;2023-01-25T08:28:43;103501.16;;;0.87;100.00
57568;BME280;43403;51.948;5.922;2023-01-25T08:31:11;103502.00;;;0.88;100.00
57568;BME280;43403;51.948;5.922;2023-01-25T08:33:38;103496.81;;;0.89;100.00
57568;BME280;43403;51.948;5.922;2023-01-25T08:36:05;103490.78;;;0.90;100.00
57568;BME280;43403;51.948;5.922;2023-01-25T08:38:34;103482.97;;;0.93;100.00
57568;BME280;43403;51.948;5.922;2023-01-25T08:41:04;103484.66;;;0.96;100.00
57568;BME280;43403;51.948;5.922;2023-01-25T08:43:31;103481.31;;;0.91;100.00
57568;BME280;43403;51.948;5.922;2023-01-25T08:45:58;103484.91;;;0.76;100.00
57568;BME280;43403;51.948;5.922;2023-01-25T08:48:24;103484.13;;;0.71;100.00
57568;BME280;43403;51.948;5.922;2023-01-25T08:50:50;103475.63;;;0.59;100.00
57568;BME280;43403;51.948;5.922;2023-01-25T08:53:17;103476.41;;;0.66;100.00
57568;BME280;43403;51.948;5.922;2023-01-25T08:55:43;103482.41;;;0.70;100.00
57568;BME280;43403;51.948;5.922;2023-01-25T08:58:10;103477.22;;;0.73;100.00
57568;BME280;43403;51.948;5.922;2023-01-25T09:00:38;103474.63;;;0.71;100.00
57568;BME280;43403;51.948;5.922;2023-01-25T09:03:05;103474.59;;;0.74;100.00
57568;BME280;43403;51.948;5.922;2023-01-25T09:05:35;103474.53;;;0.81;100.00
57568;BME280;43403;51.948;5.922;2023-01-25T09:08:02;103475.38;;;0.83;100.00
57568;BME280;43403;51.948;5.922;2023-01-25T09:10:32;103464.94;;;0.90;100.00
57568;BME280;43403;51.948;5.922;2023-01-25T09:13:01;103465.78;;;0.91;100.00
57568;BME280;43403;51.948;5.922;2023-01-25T09:15:27;103457.97;;;0.95;100.00
57568;BME280;43403;51.948;5.922;2023-01-25T09:17:54;103459.63;;;1.03;100.00
57568;BME280;43403;51.948;5.922;2023-01-25T09:20:21;103464.72;;;1.06;100.00
57568;BME280;43403;51.948;5.922;2023-01-25T09:22:48;103458.63;;;1.11;100.00
57568;BME280;43403;51.948;5.922;2023-01-25T09:25:14;103462.13;;;1.09;100.00
57568;BME280;43403;51.948;5.922;2023-01-25T09:27:41;103456.13;;;1.05;100.00
57568;BME280;43403;51.948;5.922;2023-01-25T09:30:07;103455.19;;;1.12;100.00
57568;BME280;43403;51.948;5.922;2023-01-25T09:32:43;103445.69;;;1.13;100.00
57568;BME280;43403;51.948;5.922;2023-01-25T09:35:10;103454.28;;;1.15;100.00
57568;BME280;43403;51.948;5.922;2023-01-25T09:37:36;103455.09;;;1.18;100.00
57568;BME280;43403;51.948;5.922;2023-01-25T09:40:04;103454.19;;;1.19;100.00
57568;BME280;43403;51.948;5.922;2023-01-25T09:42:48;103446.44;;;1.21;100.00
57568;BME280;43403;51.948;5.922;2023-01-25T09:45:30;103450.81;;;1.16;100.00
57568;BME280;43403;51.948;5.922;2023-01-25T09:50:37;103447.44;;;1.11;100.00
57568;BME280;43403;51.948;5.922;2023-01-25T09:53:21;103451.78;;;1.09;100.00
57568;BME280;43403;51.948;5.922;2023-01-25T09:55:54;103442.25;;;1.14;100.00
57568;BME280;43403;51.948;5.922;2023-01-25T09:58:28;103439.72;;;1.08;100.00
57568;BME280;43403;51.948;5.922;2023-01-25T10:01:14;103443.25;;;1.02;100.00
57568;BME280;43403;51.948;5.922;2023-01-25T10:03:53;103444.00;;;1.10;100.00
57568;BME280;43403;51.948;5.922;2023-01-25T10:06:22;103449.16;;;1.12;100.00
57568;BME280;43403;51.948;5.922;2023-01-25T10:08:56;103439.78;;;1.05;100.00
57568;BME280;43403;51.948;5.922;2023-01-25T10:11:28;103443.16;;;1.08;100.00
57568;BME280;43403;51.948;5.922;2023-01-25T10:13:55;103438.00;;;1.08;100.00
57568;BME280;43403;51.948;5.922;2023-01-25T10:18:57;103444.88;;;1.09;100.00
57568;BME280;43403;51.948;5.922;2023-01-25T10:21:40;103444.94;;;1.05;100.00
57568;BME280;43403;51.948;5.922;2023-01-25T10:26:43;103425.19;;;0.99;100.00
57568;BME280;43403;51.948;5.922;2023-01-25T10:29:20;103422.69;;;0.94;100.00
57568;BME280;43403;51.948;5.922;2023-01-25T10:31:47;103426.28;;;0.81;100.00
57568;BME280;43403;51.948;5.922;2023-01-25T10:34:17;103414.22;;;0.82;100.00
57568;BME280;43403;51.948;5.922;2023-01-25T10:36:44;103409.97;;;0.77;100.00
57568;BME280;43403;51.948;5.922;2023-01-25T10:39:12;103406.53;;;0.78;100.00
57568;BME280;43403;51.948;5.922;2023-01-25T10:41:42;103400.38;;;0.86;100.00
57568;BME280;43403;51.948;5.922;2023-01-25T10:44:13;103390.97;;;0.80;100.00
57568;BME280;43403;51.948;5.922;2023-01-25T10:47:03;103386.72;;;0.77;100.00
57568;BME280;43403;51.948;5.922;2023-01-25T10:52:13;103367.25;;;0.49;100.00
57568;BME280;43403;51.948;5.922;2023-01-25T10:54:40;103364.66;;;0.49;100.00
57568;BME280;43403;51.948;5.922;2023-01-25T10:57:07;103364.56;;;0.56;100.00
57568;BME280;43403;51.948;5.922;2023-01-25T10:59:34;103356.81;;;0.58;100.00
57568;BME280;43403;51.948;5.922;2023-01-25T11:02:47;103351.53;;;0.67;100.00
57568;BME280;43403;51.948;5.922;2023-01-25T11:04:48;103343.59;;;0.83;100.00
57568;BME280;43403;51.948;5.922;2023-01-25T11:07:26;103337.47;;;0.88;100.00
57568;BME280;43403;51.948;5.922;2023-01-25T11:09:54;103334.03;;;0.88;100.00
57568;BME280;43403;51.948;5.922;2023-01-25T11:12:20;103328.09;;;0.83;100.00
57568;BME280;43403;51.948;5.922;2023-01-25T11:14:47;103317.75;;;0.81;100.00
57568;BME280;43403;51.948;5.922;2023-01-25T11:17:24;103316.09;;;0.78;100.00
57568;BME280;43403;51.948;5.922;2023-01-25T11:20:05;103313.47;;;0.80;100.00
57568;BME280;43403;51.948;5.922;2023-01-25T11:22:33;103307.47;;;0.76;100.00
57568;BME280;43403;51.948;5.922;2023-01-25T11:25:03;103299.69;;;0.79;100.00
57568;BME280;43403;51.948;5.922;2023-01-25T11:27:45;103296.25;;;0.79;100.00
57568;BME280;43403;51.948;5.922;2023-01-25T11:30:15;103291.13;;;0.74;100.00
57568;BME280;43403;51.948;5.922;2023-01-25T11:32:44;103294.41;;;0.87;100.00
57568;BME280;43403;51.948;5.922;2023-01-25T11:35:18;103287.53;;;0.86;100.00
57568;BME280;43403;51.948;5.922;2023-01-25T11:40:20;103268.53;;;0.90;100.00
57568;BME280;43403;51.948;5.922;2023-01-25T11:48:34;103249.56;;;0.90;100.00
57568;BME280;43403;51.948;5.922;2023-01-25T11:56:47;103236.53;;;0.40;100.00
57568;BME280;43403;51.948;5.922;2023-01-25T11:59:30;103234.91;;;0.33;100.00
57568;BME280;43403;51.948;5.922;2023-01-25T12:02:04;103224.63;;;0.30;100.00
57568;BME280;43403;51.948;5.922;2023-01-25T12:07:23;103212.28;;;0.50;100.00
57568;BME280;43403;51.948;5.922;2023-01-25T12:25:27;103172.22;;;0.22;100.00
57568;BME280;43403;51.948;5.922;2023-01-25T12:28:01;103165.38;;;0.22;100.00
57568;BME280;43403;51.948;5.922;2023-01-25T12:33:02;103151.56;;;0.25;100.00
57568;BME280;43403;51.948;5.922;2023-01-25T12:38:40;103135.81;;;0.42;100.00
57568;BME280;43403;51.948;5.922;2023-01-25T12:41:14;103134.16;;;0.37;100.00
57568;BME280;43403;51.948;5.922;2023-01-25T12:43:47;103127.25;;;0.38;100.00
57568;BME280;43403;51.948;5.922;2023-01-25T12:46:20;103126.47;;;0.33;100.00
57568;BME280;43403;51.948;5.922;2023-01-25T12:48:49;103119.88;;;0.13;100.00
57568;BME280;43403;51.948;5.922;2023-01-25T12:51:17;103124.19;;;0.11;100.00
57568;BME280;43403;51.948;5.922;2023-01-25T12:53:46;103117.44;;;0.04;100.00
57568;BME280;43403;51.948;5.922;2023-01-25T12:56:23;103111.31;;;0.11;100.00
57568;BME280;43403;51.948;5.922;2023-01-25T12:58:52;103108.56;;;0.22;100.00
57568;BME280;43403;51.948;5.922;2023-01-25T13:01:32;103100.88;;;0.17;100.00
57568;BME280;43403;51.948;5.922;2023-01-25T13:06:41;103097.66;;;0.03;100.00
57568;BME280;43403;51.948;5.922;2023-01-25T13:09:14;103098.56;;;0.02;100.00
57568;BME280;43403;51.948;5.922;2023-01-25T13:11:44;103088.97;;;0.09;100.00
57568;BME280;43403;51.948;5.922;2023-01-25T13:16:41;103073.25;;;0.26;100.00
57568;BME280;43403;51.948;5.922;2023-01-25T13:21:54;103069.66;;;0.33;100.00
57568;BME280;43403;51.948;5.922;2023-01-25T13:24:27;103073.28;;;0.23;100.00
57568;BME280;43403;51.948;5.922;2023-01-25T13:32:00;103049.13;;;0.27;100.00
57568;BME280;43403;51.948;5.922;2023-01-25T13:42:26;103032.19;;;0.09;100.00
57568;BME280;43403;51.948;5.922;2023-01-25T13:44:54;103032.31;;;0.03;100.00
57568;BME280;43403;51.948;5.922;2023-01-25T13:47:22;103036.66;;;-0.01;100.00
57568;BME280;43403;51.948;5.922;2023-01-25T13:49:51;103029.97;;;-0.14;100.00
57568;BME280;43403;51.948;5.922;2023-01-25T13:52:20;103032.66;;;-0.21;100.00
57568;BME280;43403;51.948;5.922;2023-01-25T13:54:47;103042.03;;;-0.16;100.00
57568;BME280;43403;51.948;5.922;2023-01-25T13:57:18;103035.16;;;-0.16;100.00
57568;BME280;43403;51.948;5.922;2023-01-25T13:59:45;103040.38;;;-0.19;100.00
57568;BME280;43403;51.948;5.922;2023-01-25T14:02:12;103042.13;;;-0.23;100.00
57568;BME280;43403;51.948;5.922;2023-01-25T14:04:42;103038.00;;;-0.33;100.00
57568;BME280;43403;51.948;5.922;2023-01-25T14:07:10;103037.94;;;-0.30;100.00
57568;BME280;43403;51.948;5.922;2023-01-25T14:09:41;103030.09;;;-0.24;100.00
57568;BME280;43403;51.948;5.922;2023-01-25T14:12:08;103022.13;;;-0.07;100.00
57568;BME280;43403;51.948;5.922;2023-01-25T14:14:36;103028.00;;;0.03;100.00
57568;BME280;43403;51.948;5.922;2023-01-25T14:19:35;103019.16;;;0.18;100.00
57568;BME280;43403;51.948;5.922;2023-01-25T14:22:18;103017.34;;;0.22;100.00